Hlavní strana
METAR-TAF:

METAR-TAF

Letiště :

Bagdád, Irák

zeměpisná šířka: 33-15-45N, zeměpisná délka: 44-14-04E, výška: 35 m

Aktuální stav počasí

Zpráva byla vytvořena před 55 minutami, v 14:00 UTC
Východojihovýchodní vítr 10 kt
Teplota 33°C
Vlhkost vzduchu 34%
Tlak 1013 hPa
Viditelnost 10 km a více
Oblačno až skoro zataženo ve výšce 3000 ft

METAR: ORBI 151400Z 11010KT 9999 BKN030 33/15 Q1013

Čas: 17:55 (14:55 UTC)

Předpověď počasí

Zpráva byla vytvořena před 4 hodinami a 55 minutami, v 10:00 UTC
Předpověď platná od 15 v 12 UTC do 16 v 12 UTC
Jihojihovýchodní vítr 12 kt
Viditelnost: 8000 m
Dočasný
od 15 v 13 UTC do 15 v 23 UTC
Polojasno ve výšce 3000 ft
Polojasno ve výšce 8000 ft
slabé dešťové přeháňky
Pravděpodobnost 40%
od 15 v 14 UTC do 15 v 20 UTC
Jihojihovýchodní vítr 16 kt
Viditelnost: 3000 m
zvířený prach

TAF: ORBI 151000Z 1512/1612 15012KT 8000 NSC TEMPO 1513/1523 -SHRA SCT030 SCT080 PROB40 1514/1520 15016KT 3000 BLDU

Stav a předpovědi počasí z více než 4 000 letišť (zprávy METAR a TAF).

Červené a žluté tečky na mapě představují dostupné meteorologické stanice.

Když kurzor umístíte na tečku, zobrazí se název stanice.

Pak kliknutím zobrazíte stav a předpověď počasí.

Chcete-li změnit mapu, kliknutím na zelené tlačítko se znaménkem +mapu přiblížíte, kliknutím na zelené tlačítko se znaménkem – mapu oddálíte a kliknutím na zelené šipky přejdete na sousední mapy.


METAR-TAF: